sensor_id;sensor_type;location;lat;lon;timestamp;temperature;humidity
12847;DHT22;6492;48.128;8.320;2023-04-06T00:03:12;-3.80;27.90
12847;DHT22;6492;48.128;8.320;2023-04-06T00:07:14;-3.80;28.30
12847;DHT22;6492;48.128;8.320;2023-04-06T00:11:17;-3.90;28.50
12847;DHT22;6492;48.128;8.320;2023-04-06T00:15:19;-3.90;28.70
12847;DHT22;6492;48.128;8.320;2023-04-06T00:19:20;-4.00;28.70
12847;DHT22;6492;48.128;8.320;2023-04-06T00:23:22;-4.00;29.20
12847;DHT22;6492;48.128;8.320;2023-04-06T00:27:25;-4.00;29.00
12847;DHT22;6492;48.128;8.320;2023-04-06T00:31:27;-4.10;29.10
12847;DHT22;6492;48.128;8.320;2023-04-06T00:35:29;-4.10;29.00
12847;DHT22;6492;48.128;8.320;2023-04-06T00:39:31;-4.20;29.20
12847;DHT22;6492;48.128;8.320;2023-04-06T00:43:34;-4.20;29.50
12847;DHT22;6492;48.128;8.320;2023-04-06T00:47:36;-4.30;29.70
12847;DHT22;6492;48.128;8.320;2023-04-06T00:51:38;-4.30;30.00
12847;DHT22;6492;48.128;8.320;2023-04-06T00:55:40;-4.40;30.60
12847;DHT22;6492;48.128;8.320;2023-04-06T00:59:43;-4.40;31.60
12847;DHT22;6492;48.128;8.320;2023-04-06T01:03:45;-4.40;32.40
12847;DHT22;6492;48.128;8.320;2023-04-06T01:07:49;-4.40;32.80
12847;DHT22;6492;48.128;8.320;2023-04-06T01:11:51;-4.40;32.50
12847;DHT22;6492;48.128;8.320;2023-04-06T01:15:54;-4.40;32.40
12847;DHT22;6492;48.128;8.320;2023-04-06T01:19:56;-4.50;32.30
12847;DHT22;6492;48.128;8.320;2023-04-06T01:23:59;-4.40;32.40
12847;DHT22;6492;48.128;8.320;2023-04-06T01:28:01;-4.30;32.10
12847;DHT22;6492;48.128;8.320;2023-04-06T01:32:03;-4.30;31.00
12847;DHT22;6492;48.128;8.320;2023-04-06T01:36:06;-4.30;30.60
12847;DHT22;6492;48.128;8.320;2023-04-06T01:40:10;-4.40;30.30
12847;DHT22;6492;48.128;8.320;2023-04-06T01:44:12;-4.40;30.30
12847;DHT22;6492;48.128;8.320;2023-04-06T01:48:14;-4.50;30.60
12847;DHT22;6492;48.128;8.320;2023-04-06T01:52:16;-4.60;31.10
12847;DHT22;6492;48.128;8.320;2023-04-06T01:56:19;-4.60;31.70
12847;DHT22;6492;48.128;8.320;2023-04-06T02:00:21;-4.70;31.80
12847;DHT22;6492;48.128;8.320;2023-04-06T02:04:23;-4.70;33.00
12847;DHT22;6492;48.128;8.320;2023-04-06T02:08:25;-4.70;32.50
12847;DHT22;6492;48.128;8.320;2023-04-06T02:12:28;-4.70;32.40
12847;DHT22;6492;48.128;8.320;2023-04-06T02:16:30;-4.70;32.40
12847;DHT22;6492;48.128;8.320;2023-04-06T02:20:31;-4.80;32.40
12847;DHT22;6492;48.128;8.320;2023-04-06T02:24:33;-4.80;32.70
12847;DHT22;6492;48.128;8.320;2023-04-06T02:28:37;-4.90;32.60
12847;DHT22;6492;48.128;8.320;2023-04-06T02:32:39;-4.90;32.70
12847;DHT22;6492;48.128;8.320;2023-04-06T02:36:40;-4.90;32.50
12847;DHT22;6492;48.128;8.320;2023-04-06T02:40:42;-4.90;33.10
12847;DHT22;6492;48.128;8.320;2023-04-06T02:44:45;-4.90;33.10
12847;DHT22;6492;48.128;8.320;2023-04-06T02:48:47;-4.90;33.30
12847;DHT22;6492;48.128;8.320;2023-04-06T02:52:49;-4.80;33.10
12847;DHT22;6492;48.128;8.320;2023-04-06T02:56:50;-4.80;32.40
12847;DHT22;6492;48.128;8.320;2023-04-06T03:00:54;-4.90;32.10
12847;DHT22;6492;48.128;8.320;2023-04-06T03:04:56;-4.90;32.00
12847;DHT22;6492;48.128;8.320;2023-04-06T03:08:57;-4.90;32.20
12847;DHT22;6492;48.128;8.320;2023-04-06T03:12:59;-4.90;32.60
12847;DHT22;6492;48.128;8.320;2023-04-06T03:17:03;-5.00;32.50
12847;DHT22;6492;48.128;8.320;2023-04-06T03:21:05;-4.90;33.60
12847;DHT22;6492;48.128;8.320;2023-04-06T03:25:07;-4.80;32.80
12847;DHT22;6492;48.128;8.320;2023-04-06T03:29:08;-4.60;31.20
12847;DHT22;6492;48.128;8.320;2023-04-06T03:33:12;-4.50;30.80
12847;DHT22;6492;48.128;8.320;2023-04-06T03:37:13;-4.40;30.00
12847;DHT22;6492;48.128;8.320;2023-04-06T03:41:15;-4.30;29.60
12847;DHT22;6492;48.128;8.320;2023-04-06T03:45:17;-4.30;29.70
12847;DHT22;6492;48.128;8.320;2023-04-06T03:49:20;-4.20;29.80
12847;DHT22;6492;48.128;8.320;2023-04-06T03:53:22;-4.10;29.00
12847;DHT22;6492;48.128;8.320;2023-04-06T03:57:24;-4.10;28.40
12847;DHT22;6492;48.128;8.320;2023-04-06T04:01:26;-4.10;28.40
12847;DHT22;6492;48.128;8.320;2023-04-06T04:05:29;-4.20;28.40
12847;DHT22;6492;48.128;8.320;2023-04-06T04:09:30;-4.40;29.00
12847;DHT22;6492;48.128;8.320;2023-04-06T04:13:32;-4.40;29.50
12847;DHT22;6492;48.128;8.320;2023-04-06T04:17:37;-4.50;29.90
12847;DHT22;6492;48.128;8.320;2023-04-06T04:21:44;-4.60;30.40
12847;DHT22;6492;48.128;8.320;2023-04-06T04:25:46;-4.60;31.20
12847;DHT22;6492;48.128;8.320;2023-04-06T04:29:48;-4.60;32.30
12847;DHT22;6492;48.128;8.320;2023-04-06T04:33:52;-4.50;32.70
12847;DHT22;6492;48.128;8.320;2023-04-06T04:37:55;-4.60;32.20
12847;DHT22;6492;48.128;8.320;2023-04-06T04:41:56;-4.50;32.80
12847;DHT22;6492;48.128;8.320;2023-04-06T04:45:58;-4.50;33.00
12847;DHT22;6492;48.128;8.320;2023-04-06T04:50:00;-4.40;32.60
12847;DHT22;6492;48.128;8.320;2023-04-06T04:54:04;-4.50;32.10
12847;DHT22;6492;48.128;8.320;2023-04-06T04:58:06;-4.40;32.50
12847;DHT22;6492;48.128;8.320;2023-04-06T05:02:09;-4.40;32.60
12847;DHT22;6492;48.128;8.320;2023-04-06T05:06:11;-4.20;32.20
12847;DHT22;6492;48.128;8.320;2023-04-06T05:10:14;-4.10;31.30
12847;DHT22;6492;48.128;8.320;2023-04-06T05:14:16;-4.00;30.40
12847;DHT22;6492;48.128;8.320;2023-04-06T05:18:18;-3.90;29.90
12847;DHT22;6492;48.128;8.320;2023-04-06T05:22:20;-3.80;29.40
12847;DHT22;6492;48.128;8.320;2023-04-06T05:26:24;-3.70;28.80
12847;DHT22;6492;48.128;8.320;2023-04-06T05:30:25;-3.60;28.20
12847;DHT22;6492;48.128;8.320;2023-04-06T05:34:27;-3.50;27.90
12847;DHT22;6492;48.128;8.320;2023-04-06T05:38:29;-3.40;28.30
12847;DHT22;6492;48.128;8.320;2023-04-06T05:42:37;-3.40;28.10
12847;DHT22;6492;48.128;8.320;2023-04-06T05:46:39;-3.40;28.70
12847;DHT22;6492;48.128;8.320;2023-04-06T05:50:41;-3.40;28.70
12847;DHT22;6492;48.128;8.320;2023-04-06T05:54:43;-3.30;28.30
12847;DHT22;6492;48.128;8.320;2023-04-06T05:58:46;-3.20;27.50
12847;DHT22;6492;48.128;8.320;2023-04-06T06:02:54;-3.00;26.20
12847;DHT22;6492;48.128;8.320;2023-04-06T06:06:56;-2.80;25.80
12847;DHT22;6492;48.128;8.320;2023-04-06T06:10:58;-2.70;25.90
12847;DHT22;6492;48.128;8.320;2023-04-06T06:15:02;-2.60;25.70
12847;DHT22;6492;48.128;8.320;2023-04-06T06:19:04;-2.50;25.60
12847;DHT22;6492;48.128;8.320;2023-04-06T06:23:05;-2.30;24.30
12847;DHT22;6492;48.128;8.320;2023-04-06T06:27:07;-2.10;23.20
12847;DHT22;6492;48.128;8.320;2023-04-06T06:31:10;-1.90;22.30
12847;DHT22;6492;48.128;8.320;2023-04-06T06:35:12;-1.70;21.50
12847;DHT22;6492;48.128;8.320;2023-04-06T06:39:14;-1.60;21.00
12847;DHT22;6492;48.128;8.320;2023-04-06T06:43:16;-1.40;20.60
12847;DHT22;6492;48.128;8.320;2023-04-06T06:47:20;-1.20;19.80
12847;DHT22;6492;48.128;8.320;2023-04-06T06:51:21;-0.90;18.80
12847;DHT22;6492;48.128;8.320;2023-04-06T06:55:23;-0.70;17.60
12847;DHT22;6492;48.128;8.320;2023-04-06T06:59:26;-0.40;16.60
12847;DHT22;6492;48.128;8.320;2023-04-06T07:03:29;-0.10;16.20
12847;DHT22;6492;48.128;8.320;2023-04-06T07:07:32;0.10;14.90
12847;DHT22;6492;48.128;8.320;2023-04-06T07:11:34;0.40;14.80
12847;DHT22;6492;48.128;8.320;2023-04-06T07:15:36;0.70;13.40
12847;DHT22;6492;48.128;8.320;2023-04-06T07:19:39;1.00;13.10
12847;DHT22;6492;48.128;8.320;2023-04-06T07:23:41;1.20;12.50
12847;DHT22;6492;48.128;8.320;2023-04-06T07:27:43;1.50;9.00
12847;DHT22;6492;48.128;8.320;2023-04-06T07:31:45;1.80;7.90
12847;DHT22;6492;48.128;8.320;2023-04-06T07:35:50;2.00;6.40
12847;DHT22;6492;48.128;8.320;2023-04-06T07:39:52;2.20;6.50
12847;DHT22;6492;48.128;8.320;2023-04-06T07:43:54;2.40;4.40
12847;DHT22;6492;48.128;8.320;2023-04-06T07:47:56;2.50;2.90
12847;DHT22;6492;48.128;8.320;2023-04-06T07:51:59;2.70;4.20
12847;DHT22;6492;48.128;8.320;2023-04-06T07:56:03;3.00;3.10
12847;DHT22;6492;48.128;8.320;2023-04-06T08:00:06;3.10;1.90
12847;DHT22;6492;48.128;8.320;2023-04-06T08:04:09;3.30;1.70
12847;DHT22;6492;48.128;8.320;2023-04-06T08:08:13;3.40;1.00
12847;DHT22;6492;48.128;8.320;2023-04-06T08:12:14;3.60;1.10
12847;DHT22;6492;48.128;8.320;2023-04-06T08:16:16;3.80;1.00
12847;DHT22;6492;48.128;8.320;2023-04-06T08:20:18;4.10;1.00
12847;DHT22;6492;48.128;8.320;2023-04-06T08:24:21;4.40;1.00
12847;DHT22;6492;48.128;8.320;2023-04-06T08:28:23;4.80;1.00
12847;DHT22;6492;48.128;8.320;2023-04-06T08:32:25;5.10;1.00
12847;DHT22;6492;48.128;8.320;2023-04-06T08:36:28;5.60;1.00
12847;DHT22;6492;48.128;8.320;2023-04-06T08:40:36;6.10;1.00
12847;DHT22;6492;48.128;8.320;2023-04-06T08:44:38;6.80;1.00
12847;DHT22;6492;48.128;8.320;2023-04-06T08:48:42;7.10;1.00
12847;DHT22;6492;48.128;8.320;2023-04-06T08:52:47;7.30;1.00
12847;DHT22;6492;48.128;8.320;2023-04-06T08:56:50;7.40;1.00
12847;DHT22;6492;48.128;8.320;2023-04-06T09:00:53;7.60;1.00
12847;DHT22;6492;48.128;8.320;2023-04-06T09:04:55;7.80;1.00
12847;DHT22;6492;48.128;8.320;2023-04-06T09:08:57;8.00;1.00
12847;DHT22;6492;48.128;8.320;2023-04-06T09:13:04;8.20;1.00
12847;DHT22;6492;48.128;8.320;2023-04-06T09:17:06;8.20;1.00
12847;DHT22;6492;48.128;8.320;2023-04-06T09:21:08;8.30;1.00
12847;DHT22;6492;48.128;8.320;2023-04-06T09:25:19;8.30;1.00
12847;DHT22;6492;48.128;8.320;2023-04-06T09:29:25;8.60;1.00
12847;DHT22;6492;48.128;8.320;2023-04-06T09:33:27;8.90;1.00
12847;DHT22;6492;48.128;8.320;2023-04-06T09:37:29;9.10;1.00
12847;DHT22;6492;48.128;8.320;2023-04-06T09:41:32;9.50;1.00
12847;DHT22;6492;48.128;8.320;2023-04-06T09:45:36;9.70;1.00
12847;DHT22;6492;48.128;8.320;2023-04-06T09:49:38;9.60;1.00
12847;DHT22;6492;48.128;8.320;2023-04-06T09:53:42;9.50;1.00
12847;DHT22;6492;48.128;8.320;2023-04-06T09:57:52;9.60;1.00
12847;DHT22;6492;48.128;8.320;2023-04-06T10:01:58;9.80;1.00
12847;DHT22;6492;48.128;8.320;2023-04-06T10:06:03;9.80;1.00
12847;DHT22;6492;48.128;8.320;2023-04-06T10:10:07;9.80;1.00
12847;DHT22;6492;48.128;8.320;2023-04-06T10:14:10;10.30;1.00
12847;DHT22;6492;48.128;8.320;2023-04-06T10:18:23;10.80;1.00
12847;DHT22;6492;48.128;8.320;2023-04-06T10:22:36;10.70;1.00
12847;DHT22;6492;48.128;8.320;2023-04-06T10:26:40;10.70;1.00
12847;DHT22;6492;48.128;8.320;2023-04-06T10:30:43;10.80;1.00
12847;DHT22;6492;48.128;8.320;2023-04-06T10:34:46;10.70;1.00
12847;DHT22;6492;48.128;8.320;2023-04-06T10:38:54;10.80;1.00
12847;DHT22;6492;48.128;8.320;2023-04-06T10:43:06;10.70;1.00
12847;DHT22;6492;48.128;8.320;2023-04-06T10:47:16;10.60;1.00
12847;DHT22;6492;48.128;8.320;2023-04-06T10:51:24;10.60;1.00
12847;DHT22;6492;48.128;8.320;2023-04-06T10:55:28;10.90;1.00
12847;DHT22;6492;48.128;8.320;2023-04-06T10:59:31;11.50;1.00
12847;DHT22;6492;48.128;8.320;2023-04-06T11:03:42;11.60;1.00
12847;DHT22;6492;48.128;8.320;2023-04-06T11:07:46;11.70;1.00
12847;DHT22;6492;48.128;8.320;2023-04-06T11:11:48;11.90;1.00
12847;DHT22;6492;48.128;8.320;2023-04-06T11:15:50;11.70;1.00
12847;DHT22;6492;48.128;8.320;2023-04-06T11:19:51;11.30;1.00
12847;DHT22;6492;48.128;8.320;2023-04-06T11:24:04;11.10;1.00
12847;DHT22;6492;48.128;8.320;2023-04-06T11:28:06;11.30;1.00
12847;DHT22;6492;48.128;8.320;2023-04-06T11:32:08;11.70;1.00
12847;DHT22;6492;48.128;8.320;2023-04-06T11:36:09;11.70;1.00
12847;DHT22;6492;48.128;8.320;2023-04-06T11:40:13;11.90;1.00
12847;DHT22;6492;48.128;8.320;2023-04-06T11:44:14;12.10;1.00
12847;DHT22;6492;48.128;8.320;2023-04-06T11:48:19;12.30;1.00
12847;DHT22;6492;48.128;8.320;2023-04-06T11:52:25;12.10;1.00
12847;DHT22;6492;48.128;8.320;2023-04-06T11:56:29;12.40;1.00
12847;DHT22;6492;48.128;8.320;2023-04-06T12:00:31;12.50;1.00
12847;DHT22;6492;48.128;8.320;2023-04-06T12:04:35;12.80;1.00
12847;DHT22;6492;48.128;8.320;2023-04-06T12:08:36;12.80;1.00
12847;DHT22;6492;48.128;8.320;2023-04-06T12:12:40;12.90;1.00
12847;DHT22;6492;48.128;8.320;2023-04-06T12:16:42;13.20;1.00
12847;DHT22;6492;48.128;8.320;2023-04-06T12:20:44;13.20;1.00
12847;DHT22;6492;48.128;8.320;2023-04-06T12:24:45;13.20;1.00
12847;DHT22;6492;48.128;8.320;2023-04-06T12:28:49;13.10;1.00
12847;DHT22;6492;48.128;8.320;2023-04-06T12:32:51;12.80;1.00
12847;DHT22;6492;48.128;8.320;2023-04-06T12:36:53;13.20;1.00
12847;DHT22;6492;48.128;8.320;2023-04-06T12:40:55;13.20;1.00
12847;DHT22;6492;48.128;8.320;2023-04-06T12:44:58;13.60;1.00
12847;DHT22;6492;48.128;8.320;2023-04-06T12:49:00;13.90;1.00
12847;DHT22;6492;48.128;8.320;2023-04-06T12:53:03;14.00;1.00
12847;DHT22;6492;48.128;8.320;2023-04-06T12:57:05;13.70;1.00
12847;DHT22;6492;48.128;8.320;2023-04-06T13:01:08;13.30;1.00
12847;DHT22;6492;48.128;8.320;2023-04-06T13:05:11;13.00;1.00
12847;DHT22;6492;48.128;8.320;2023-04-06T13:09:13;13.00;1.00
12847;DHT22;6492;48.128;8.320;2023-04-06T13:13:15;13.30;1.00
12847;DHT22;6492;48.128;8.320;2023-04-06T13:17:18;13.40;1.00
12847;DHT22;6492;48.128;8.320;2023-04-06T13:21:21;13.10;1.00
12847;DHT22;6492;48.128;8.320;2023-04-06T13:25:23;12.90;1.00
12847;DHT22;6492;48.128;8.320;2023-04-06T13:29:25;12.70;1.00
12847;DHT22;6492;48.128;8.320;2023-04-06T13:33:28;12.60;1.00
12847;DHT22;6492;48.128;8.320;2023-04-06T13:37:30;12.70;1.00
12847;DHT22;6492;48.128;8.320;2023-04-06T13:41:32;12.50;1.00
12847;DHT22;6492;48.128;8.320;2023-04-06T13:45:34;12.30;1.00
12847;DHT22;6492;48.128;8.320;2023-04-06T13:49:37;12.30;1.00
12847;DHT22;6492;48.128;8.320;2023-04-06T13:53:39;11.80;1.00
12847;DHT22;6492;48.128;8.320;2023-04-06T13:57:41;11.90;1.00
12847;DHT22;6492;48.128;8.320;2023-04-06T14:01:43;11.90;1.00
12847;DHT22;6492;48.128;8.320;2023-04-06T14:05:46;11.80;1.00
12847;DHT22;6492;48.128;8.320;2023-04-06T14:09:48;11.70;1.00
12847;DHT22;6492;48.128;8.320;2023-04-06T14:13:50;11.80;1.00
12847;DHT22;6492;48.128;8.320;2023-04-06T14:17:51;11.70;1.00
12847;DHT22;6492;48.128;8.320;2023-04-06T14:21:54;11.70;1.00
12847;DHT22;6492;48.128;8.320;2023-04-06T14:26:03;11.60;1.00
12847;DHT22;6492;48.128;8.320;2023-04-06T14:30:07;11.30;1.00
12847;DHT22;6492;48.128;8.320;2023-04-06T14:34:08;11.00;1.00
12847;DHT22;6492;48.128;8.320;2023-04-06T14:38:11;10.80;1.00
12847;DHT22;6492;48.128;8.320;2023-04-06T14:42:13;10.70;1.00
12847;DHT22;6492;48.128;8.320;2023-04-06T14:46:15;10.60;1.00
12847;DHT22;6492;48.128;8.320;2023-04-06T14:50:17;10.50;1.00
12847;DHT22;6492;48.128;8.320;2023-04-06T14:54:20;10.50;1.00
12847;DHT22;6492;48.128;8.320;2023-04-06T14:58:22;10.30;1.00
12847;DHT22;6492;48.128;8.320;2023-04-06T15:02:24;10.00;1.00
12847;DHT22;6492;48.128;8.320;2023-04-06T15:06:26;9.80;1.00
12847;DHT22;6492;48.128;8.320;2023-04-06T15:10:31;9.60;1.00
12847;DHT22;6492;48.128;8.320;2023-04-06T15:14:32;9.50;1.00
12847;DHT22;6492;48.128;8.320;2023-04-06T15:18:35;9.40;1.00
12847;DHT22;6492;48.128;8.320;2023-04-06T15:22:36;9.40;1.00
12847;DHT22;6492;48.128;8.320;2023-04-06T15:26:40;9.30;1.00
12847;DHT22;6492;48.128;8.320;2023-04-06T15:30:42;9.20;1.00
12847;DHT22;6492;48.128;8.320;2023-04-06T15:34:43;9.10;1.00
12847;DHT22;6492;48.128;8.320;2023-04-06T15:38:45;9.10;1.00
12847;DHT22;6492;48.128;8.320;2023-04-06T15:42:48;9.00;1.00
12847;DHT22;6492;48.128;8.320;2023-04-06T15:46:50;9.00;1.00
12847;DHT22;6492;48.128;8.320;2023-04-06T15:50:56;8.80;1.00
12847;DHT22;6492;48.128;8.320;2023-04-06T15:54:58;8.60;1.00
12847;DHT22;6492;48.128;8.320;2023-04-06T15:59:01;8.40;1.00
12847;DHT22;6492;48.128;8.320;2023-04-06T16:03:03;8.40;1.00
12847;DHT22;6492;48.128;8.320;2023-04-06T16:07:05;8.30;1.00
12847;DHT22;6492;48.128;8.320;2023-04-06T16:11:07;8.30;1.00
12847;DHT22;6492;48.128;8.320;2023-04-06T16:15:11;8.30;1.00
12847;DHT22;6492;48.128;8.320;2023-04-06T16:19:12;8.30;1.00
12847;DHT22;6492;48.128;8.320;2023-04-06T16:23:14;8.30;1.00
12847;DHT22;6492;48.128;8.320;2023-04-06T16:27:16;8.40;1.00
12847;DHT22;6492;48.128;8.320;2023-04-06T16:31:20;8.40;1.00
12847;DHT22;6492;48.128;8.320;2023-04-06T16:35:22;8.30;1.00
12847;DHT22;6492;48.128;8.320;2023-04-06T16:39:25;8.20;1.00
12847;DHT22;6492;48.128;8.320;2023-04-06T16:43:27;8.00;1.00
12847;DHT22;6492;48.128;8.320;2023-04-06T16:47:30;7.70;1.00
12847;DHT22;6492;48.128;8.320;2023-04-06T16:51:32;7.50;1.00
12847;DHT22;6492;48.128;8.320;2023-04-06T16:55:34;7.30;1.00
12847;DHT22;6492;48.128;8.320;2023-04-06T16:59:38;7.20;1.00
12847;DHT22;6492;48.128;8.320;2023-04-06T17:03:42;7.10;1.00
12847;DHT22;6492;48.128;8.320;2023-04-06T17:07:43;7.00;1.00
12847;DHT22;6492;48.128;8.320;2023-04-06T17:11:45;6.80;1.00
12847;DHT22;6492;48.128;8.320;2023-04-06T17:15:47;6.60;1.00
12847;DHT22;6492;48.128;8.320;2023-04-06T17:19:52;6.40;1.00
12847;DHT22;6492;48.128;8.320;2023-04-06T17:23:54;6.20;1.00
12847;DHT22;6492;48.128;8.320;2023-04-06T17:27:55;6.00;2.80
12847;DHT22;6492;48.128;8.320;2023-04-06T17:31:57;5.90;3.90
12847;DHT22;6492;48.128;8.320;2023-04-06T17:36:01;5.70;4.40
12847;DHT22;6492;48.128;8.320;2023-04-06T17:40:05;5.60;5.00
12847;DHT22;6492;48.128;8.320;2023-04-06T17:44:07;5.50;6.40
12847;DHT22;6492;48.128;8.320;2023-04-06T17:48:08;5.40;6.60
12847;DHT22;6492;48.128;8.320;2023-04-06T17:52:11;5.30;8.20
12847;DHT22;6492;48.128;8.320;2023-04-06T17:56:13;5.20;9.10
12847;DHT22;6492;48.128;8.320;2023-04-06T18:00:16;5.10;11.10
12847;DHT22;6492;48.128;8.320;2023-04-06T18:04:23;4.90;13.60
12847;DHT22;6492;48.128;8.320;2023-04-06T18:08:26;4.70;16.20
12847;DHT22;6492;48.128;8.320;2023-04-06T18:12:28;4.60;18.60
12847;DHT22;6492;48.128;8.320;2023-04-06T18:16:30;4.40;19.80
12847;DHT22;6492;48.128;8.320;2023-04-06T18:20:38;4.30;21.00
12847;DHT22;6492;48.128;8.320;2023-04-06T18:24:41;4.10;22.90
12847;DHT22;6492;48.128;8.320;2023-04-06T18:28:43;4.10;23.50
12847;DHT22;6492;48.128;8.320;2023-04-06T18:32:46;4.00;25.50
12847;DHT22;6492;48.128;8.320;2023-04-06T18:36:48;3.90;26.70
12847;DHT22;6492;48.128;8.320;2023-04-06T18:40:51;3.80;30.00
12847;DHT22;6492;48.128;8.320;2023-04-06T18:44:53;3.70;29.80
12847;DHT22;6492;48.128;8.320;2023-04-06T18:48:54;3.60;31.20
12847;DHT22;6492;48.128;8.320;2023-04-06T18:52:56;3.50;32.70
12847;DHT22;6492;48.128;8.320;2023-04-06T18:56:59;3.40;34.50
12847;DHT22;6492;48.128;8.320;2023-04-06T19:01:01;3.30;35.40
12847;DHT22;6492;48.128;8.320;2023-04-06T19:05:04;3.30;35.90
12847;DHT22;6492;48.128;8.320;2023-04-06T19:09:09;3.20;36.20
12847;DHT22;6492;48.128;8.320;2023-04-06T19:13:12;3.10;37.10
12847;DHT22;6492;48.128;8.320;2023-04-06T19:17:14;3.10;37.20
12847;DHT22;6492;48.128;8.320;2023-04-06T19:21:16;3.10;37.10
12847;DHT22;6492;48.128;8.320;2023-04-06T19:25:18;3.00;36.80
12847;DHT22;6492;48.128;8.320;2023-04-06T19:29:22;3.00;37.80
12847;DHT22;6492;48.128;8.320;2023-04-06T19:33:23;3.00;38.00
12847;DHT22;6492;48.128;8.320;2023-04-06T19:37:26;3.00;39.30
12847;DHT22;6492;48.128;8.320;2023-04-06T19:41:28;3.00;38.20
12847;DHT22;6492;48.128;8.320;2023-04-06T19:45:31;3.00;38.10
12847;DHT22;6492;48.128;8.320;2023-04-06T19:49:32;3.00;38.00
12847;DHT22;6492;48.128;8.320;2023-04-06T19:53:34;3.00;38.10
12847;DHT22;6492;48.128;8.320;2023-04-06T19:57:37;3.00;38.20
12847;DHT22;6492;48.128;8.320;2023-04-06T20:01:40;3.00;38.50
12847;DHT22;6492;48.128;8.320;2023-04-06T20:05:41;3.00;39.00
12847;DHT22;6492;48.128;8.320;2023-04-06T20:09:43;3.00;38.70
12847;DHT22;6492;48.128;8.320;2023-04-06T20:13:45;3.00;38.40
12847;DHT22;6492;48.128;8.320;2023-04-06T20:17:48;3.00;38.40
12847;DHT22;6492;48.128;8.320;2023-04-06T20:21:50;3.00;38.20
12847;DHT22;6492;48.128;8.320;2023-04-06T20:25:51;3.00;37.90
12847;DHT22;6492;48.128;8.320;2023-04-06T20:29:53;3.00;37.60
12847;DHT22;6492;48.128;8.320;2023-04-06T20:33:56;3.00;37.70
12847;DHT22;6492;48.128;8.320;2023-04-06T20:37:58;3.00;38.00
12847;DHT22;6492;48.128;8.320;2023-04-06T20:42:00;2.90;38.70
12847;DHT22;6492;48.128;8.320;2023-04-06T20:46:02;2.90;38.60
12847;DHT22;6492;48.128;8.320;2023-04-06T20:50:07;2.90;38.50
12847;DHT22;6492;48.128;8.320;2023-04-06T20:54:11;2.90;38.60
12847;DHT22;6492;48.128;8.320;2023-04-06T20:58:13;2.90;38.90
12847;DHT22;6492;48.128;8.320;2023-04-06T21:02:16;2.90;38.50
12847;DHT22;6492;48.128;8.320;2023-04-06T21:06:19;2.90;38.20
12847;DHT22;6492;48.128;8.320;2023-04-06T21:10:21;2.80;37.90
12847;DHT22;6492;48.128;8.320;2023-04-06T21:14:23;2.80;38.50
12847;DHT22;6492;48.128;8.320;2023-04-06T21:18:25;2.80;38.40
12847;DHT22;6492;48.128;8.320;2023-04-06T21:22:29;2.80;38.40
12847;DHT22;6492;48.128;8.320;2023-04-06T21:26:31;2.80;38.40
12847;DHT22;6492;48.128;8.320;2023-04-06T21:30:32;2.80;38.40
12847;DHT22;6492;48.128;8.320;2023-04-06T21:34:36;2.80;38.20
12847;DHT22;6492;48.128;8.320;2023-04-06T21:38:39;2.80;38.20
12847;DHT22;6492;48.128;8.320;2023-04-06T21:42:41;2.80;38.20
12847;DHT22;6492;48.128;8.320;2023-04-06T21:46:43;2.80;37.80
12847;DHT22;6492;48.128;8.320;2023-04-06T21:50:44;2.80;37.70
12847;DHT22;6492;48.128;8.320;2023-04-06T21:54:47;2.80;37.90
12847;DHT22;6492;48.128;8.320;2023-04-06T21:58:49;2.80;37.80
12847;DHT22;6492;48.128;8.320;2023-04-06T22:02:51;2.80;37.60
12847;DHT22;6492;48.128;8.320;2023-04-06T22:06:53;2.80;37.80
12847;DHT22;6492;48.128;8.320;2023-04-06T22:10:58;2.80;38.70
12847;DHT22;6492;48.128;8.320;2023-04-06T22:15:00;2.80;37.70
12847;DHT22;6492;48.128;8.320;2023-04-06T22:19:02;2.80;37.60
12847;DHT22;6492;48.128;8.320;2023-04-06T22:23:04;2.80;37.40
12847;DHT22;6492;48.128;8.320;2023-04-06T22:27:07;2.80;37.40
12847;DHT22;6492;48.128;8.320;2023-04-06T22:31:09;2.90;37.40
12847;DHT22;6492;48.128;8.320;2023-04-06T22:35:10;2.80;36.70
12847;DHT22;6492;48.128;8.320;2023-04-06T22:39:12;2.90;35.90
12847;DHT22;6492;48.128;8.320;2023-04-06T22:43:15;2.90;35.10
12847;DHT22;6492;48.128;8.320;2023-04-06T22:47:17;2.90;34.40
12847;DHT22;6492;48.128;8.320;2023-04-06T22:51:19;2.90;34.60
12847;DHT22;6492;48.128;8.320;2023-04-06T22:55:21;2.90;33.90
12847;DHT22;6492;48.128;8.320;2023-04-06T22:59:24;3.00;33.80
12847;DHT22;6492;48.128;8.320;2023-04-06T23:03:26;3.00;33.90
12847;DHT22;6492;48.128;8.320;2023-04-06T23:07:28;3.00;33.80
12847;DHT22;6492;48.128;8.320;2023-04-06T23:11:31;3.00;32.70
12847;DHT22;6492;48.128;8.320;2023-04-06T23:15:35;3.00;32.30
12847;DHT22;6492;48.128;8.320;2023-04-06T23:19:37;3.10;31.80
12847;DHT22;6492;48.128;8.320;2023-04-06T23:23:38;3.10;30.40
12847;DHT22;6492;48.128;8.320;2023-04-06T23:27:40;3.20;30.50
12847;DHT22;6492;48.128;8.320;2023-04-06T23:31:43;3.20;30.40
12847;DHT22;6492;48.128;8.320;2023-04-06T23:35:45;3.20;30.70
12847;DHT22;6492;48.128;8.320;2023-04-06T23:39:46;3.20;30.00
12847;DHT22;6492;48.128;8.320;2023-04-06T23:43:48;3.20;29.40
12847;DHT22;6492;48.128;8.320;2023-04-06T23:47:53;3.30;28.70
12847;DHT22;6492;48.128;8.320;2023-04-06T23:51:54;3.30;28.60
12847;DHT22;6492;48.128;8.320;2023-04-06T23:55:56;3.30;28.60
12847;DHT22;6492;48.128;8.320;2023-04-06T23:59:58;3.30;28.90
